Terminal Aerodrome Forecast
Issued by NWS Twin Cities, MN

Home | Current Version | Previous Version | Graphics & Text | Print | Product List | Glossary On
Versions: 1 2 3 4 5 6 7 8 9 10 11 12 13 14 15 16 17 18 19 20 21 22 23 24 25 26 27 28 29 30 31 32 33
000
FTUS43 KMPX 161133
TAFMSP
TAF
KMSP 161133Z 1612/1718 11009KT 6SM -SHRA BR SCT007 OVC025
     FM161400 12009KT P6SM SCT008 OVC030
     FM161800 13006KT P6SM VCSH SCT030 OVC050
     FM162100 16008KT 6SM -SHRA SCT020 BKN035
      TEMPO 1700/1704 3SM TSRA BKN020CB
     FM170400 05006KT 4SM RA BR OVC012
     FM170600 02006KT 4SM RA BR OVC008
     FM171000 34005KT P6SM OVC008=

USA.gov is the U.S. government's official web portal to all federal, state and local government web resources and services.